LESO/EAS METAR and TAF weather

Enter ICAO airport designator
Station Type Date Time Source
LESO METAR 2020/09/20 08:00 UTC NOAA

LESO 200800Z 21008KT 9999 FEW035 20/15 Q1015


Station Type Date Time Source
LESO Decoded METAR 2020/09/20 08:00 UTC NOAA

San Sebastian / Fuenterrabia, Spain (LESO) 43-21N 001-48W 8M
Sep 20, 2020 - 04:00 AM EDT / 2020.09.20 0800 UTC
Wind: from the SSW (210 degrees) at 9 MPH (8 KT):0
Visibility: greater than 7 mile(s):0
Sky conditions: mostly clear
Temperature: 68 F (20 C)
Dew Point: 59 F (15 C)
Relative Humidity: 72%
Pressure (altimeter): 29.97 in. Hg (1015 hPa)
ob: LESO 200800Z 21008KT 9999 FEW035 20/15 Q1015
cycle: 8

Station Type Date Time Source
LESO TAF 2020/09/20 06:27 UTC NOAA

TAF LESO 200500Z 2006/2106 26008KT 9999 SCT040 TX23/2014Z TN17/2106Z PROB30
TEMPO 2006/2007 3000 BR PROB40
TEMPO 2012/2018 26015G25KT PROB30
TEMPO 2015/2024 26015G25KT 3000 SHRA SCT030TCU PROB30
TEMPO 2015/2024 TS FEW035CB

Example: see airport list